createdAt,value
2023-02-26T00:01:32.138Z,143246.56
2023-02-26T00:04:02.052Z,143279.13
2023-02-26T00:06:32.424Z,143282.75
2023-02-26T00:08:59.807Z,143292.41
2023-02-26T00:11:27.332Z,143302.03
2023-02-26T00:13:54.582Z,143289.97
2023-02-26T00:16:34.461Z,143286.34
2023-02-26T00:19:04.873Z,143321.31
2023-02-26T00:21:33.121Z,143294.78
2023-02-26T00:24:02.051Z,143271.88
2023-02-26T00:26:31.370Z,143241.75
2023-02-26T00:28:58.937Z,143263.44
2023-02-26T00:31:27.099Z,143326.13
2023-02-26T00:33:55.885Z,143248.97
2023-02-26T00:36:28.479Z,143194.72
2023-02-26T00:39:34.130Z,143164.59
2023-02-26T00:42:01.345Z,143157.34
2023-02-26T00:44:28.701Z,143157.34
2023-02-26T00:47:10.788Z,143126.00
2023-02-26T00:50:04.523Z,143109.13
2023-02-26T00:52:53.008Z,143060.97
2023-02-26T00:55:20.154Z,143039.25
2023-02-26T00:57:47.260Z,143027.19
2023-02-26T01:00:15.008Z,143015.19
2023-02-26T01:02:43.485Z,143035.63
2023-02-26T01:05:11.870Z,142998.31
2023-02-26T01:07:45.866Z,143070.59
2023-02-26T01:10:14.238Z,143058.53
2023-02-26T01:12:42.301Z,143063.34
2023-02-26T01:15:10.623Z,143048.88
2023-02-26T01:17:48.381Z,142895.91
2023-02-26T01:20:21.279Z,143027.19
2023-02-26T01:23:08.979Z,143092.28
2023-02-26T01:25:47.352Z,143081.41
2023-02-26T01:28:14.940Z,143009.13
2023-02-26T01:30:42.931Z,143015.19
2023-02-26T01:33:34.638Z,142988.66
2023-02-26T01:36:11.754Z,143007.94
2023-02-26T01:38:56.925Z,142988.66
2023-02-26T01:41:24.746Z,142976.59
2023-02-26T01:44:02.305Z,142954.91
2023-02-26T01:46:57.469Z,142953.72
2023-02-26T01:49:25.378Z,142938.03
2023-02-26T01:52:01.191Z,142926.03
2023-02-26T01:54:37.462Z,142928.41
2023-02-26T01:57:18.491Z,142933.22
2023-02-26T01:59:51.084Z,142940.47
2023-02-26T02:02:22.688Z,142923.59
2023-02-26T02:04:50.105Z,142929.66
2023-02-26T02:07:18.604Z,142947.72
2023-02-26T02:09:47.509Z,142814.03
2023-02-26T02:12:35.107Z,143007.94
2023-02-26T02:15:12.368Z,143021.19
2023-02-26T02:17:59.900Z,143032.00
2023-02-26T02:20:38.937Z,143068.16
2023-02-26T02:23:11.741Z,143041.66
2023-02-26T02:25:57.581Z,142998.31
2023-02-26T02:28:42.670Z,143011.56
2023-02-26T02:31:20.809Z,142940.47
2023-02-26T02:33:58.212Z,142986.25
2023-02-26T02:36:36.396Z,142968.16
2023-02-26T02:39:11.298Z,142977.78
2023-02-26T02:41:45.743Z,142976.59
2023-02-26T02:44:17.680Z,143000.69
2023-02-26T02:46:47.570Z,142971.78
2023-02-26T02:49:25.498Z,142988.66
2023-02-26T02:52:16.662Z,142965.78
2023-02-26T02:54:51.909Z,142962.16
2023-02-26T02:57:33.833Z,143027.19
2023-02-26T03:00:06.800Z,143005.50
2023-02-26T03:02:41.518Z,142995.88
2023-02-26T03:05:09.115Z,142952.53
2023-02-26T03:07:42.375Z,143015.19
2023-02-26T03:10:10.129Z,143001.91
2023-02-26T03:12:37.336Z,142969.34
2023-02-26T03:15:04.976Z,142940.47
2023-02-26T03:17:40.989Z,142976.59
2023-02-26T03:20:16.749Z,142959.72
2023-02-26T03:23:19.864Z,142993.47
2023-02-26T03:25:54.504Z,142993.47
2023-02-26T03:28:41.535Z,143005.50
2023-02-26T03:31:31.320Z,142991.06
2023-02-26T03:34:03.090Z,143001.91
2023-02-26T03:36:37.814Z,142993.47
2023-02-26T03:39:26.741Z,143015.19
2023-02-26T03:42:00.124Z,143007.94
2023-02-26T03:44:38.974Z,142793.53
2023-02-26T03:47:11.099Z,142991.06
2023-02-26T03:49:56.621Z,142979.03
2023-02-26T03:52:28.742Z,143006.75
2023-02-26T03:55:39.055Z,142971.78
2023-02-26T03:58:18.553Z,143020.00
2023-02-26T04:01:09.262Z,142893.50
2023-02-26T04:03:49.423Z,142986.25
2023-02-26T04:06:16.980Z,142911.59
2023-02-26T04:08:44.919Z,142928.41
2023-02-26T04:11:19.407Z,142928.41
2023-02-26T04:13:47.192Z,142906.75
2023-02-26T04:16:14.690Z,142892.28
2023-02-26T04:18:42.572Z,142921.22
2023-02-26T04:21:21.400Z,142959.72
2023-02-26T04:23:52.346Z,142971.78
2023-02-26T04:26:19.503Z,142971.78
2023-02-26T04:28:46.823Z,143047.69
2023-02-26T04:31:15.553Z,143022.38
2023-02-26T04:33:42.839Z,142966.97
2023-02-26T04:36:10.563Z,143017.56
2023-02-26T04:38:37.822Z,143005.50
2023-02-26T04:41:06.927Z,142991.06
2023-02-26T04:43:33.980Z,143017.56
2023-02-26T04:46:15.471Z,142966.97
2023-02-26T04:48:42.795Z,142962.16
2023-02-26T04:51:09.847Z,142977.78
2023-02-26T04:53:36.905Z,143000.69
2023-02-26T04:56:04.655Z,143010.31
2023-02-26T04:58:31.986Z,142983.84
2023-02-26T05:01:04.436Z,143000.69
2023-02-26T05:03:31.831Z,142985.03
2023-02-26T05:05:58.926Z,142985.03
2023-02-26T05:08:26.196Z,143003.13
2023-02-26T05:10:53.217Z,142975.41
2023-02-26T05:13:21.383Z,142991.06
2023-02-26T05:15:48.409Z,143022.38
2023-02-26T05:18:15.440Z,142976.59
2023-02-26T05:20:42.501Z,142991.06
2023-02-26T05:23:09.535Z,142940.47
2023-02-26T05:25:36.559Z,142911.59
2023-02-26T05:28:03.741Z,142877.84
2023-02-26T05:30:30.785Z,142909.16
2023-02-26T05:32:57.777Z,142891.09
2023-02-26T05:35:24.774Z,142899.53
2023-02-26T05:37:51.829Z,142959.72
2023-02-26T05:40:18.923Z,142771.91
2023-02-26T05:42:45.936Z,142921.22
2023-02-26T05:45:13.004Z,142913.97
2023-02-26T05:47:40.125Z,142935.66
2023-02-26T05:50:07.788Z,142938.03
2023-02-26T05:52:34.909Z,142904.34
2023-02-26T05:55:02.156Z,142900.72
2023-02-26T05:57:29.289Z,142876.66
2023-02-26T05:59:56.297Z,142904.34
2023-02-26T06:02:23.317Z,142889.91
2023-02-26T06:04:50.339Z,142892.28
2023-02-26T06:07:17.390Z,142880.25
2023-02-26T06:09:44.486Z,142856.16
2023-02-26T06:12:11.530Z,142836.91
2023-02-26T06:14:38.543Z,142864.59
2023-02-26T06:17:06.628Z,142847.72
2023-02-26T06:19:33.986Z,142867.00
2023-02-26T06:22:01.043Z,142881.47
2023-02-26T06:24:28.086Z,142892.28
2023-02-26T06:26:55.143Z,142858.59
2023-02-26T06:29:23.425Z,142852.56
2023-02-26T06:31:50.705Z,142698.44
2023-02-26T06:34:18.036Z,142827.28
2023-02-26T06:36:45.024Z,142822.47
2023-02-26T06:39:12.699Z,142841.72
2023-02-26T06:41:40.280Z,142836.91
2023-02-26T06:44:07.393Z,142737.00
2023-02-26T06:46:34.433Z,142821.28
2023-02-26T06:49:01.469Z,142827.28
2023-02-26T06:51:29.168Z,142829.66
2023-02-26T06:53:56.810Z,142832.09
2023-02-26T06:56:24.465Z,142715.31
2023-02-26T06:58:51.670Z,142870.63
2023-02-26T07:01:18.949Z,142877.84
2023-02-26T07:03:45.980Z,142901.91
2023-02-26T07:06:26.357Z,142919.97
2023-02-26T07:08:55.052Z,142954.91
2023-02-26T07:11:22.110Z,142994.66
2023-02-26T07:13:49.113Z,143051.31
2023-02-26T07:16:16.087Z,143076.59
2023-02-26T07:18:43.062Z,143095.88
2023-02-26T07:21:10.073Z,143123.63
2023-02-26T07:23:37.169Z,143118.75
2023-02-26T07:26:04.400Z,143207.97
2023-02-26T07:28:31.390Z,143251.41
2023-02-26T07:30:58.588Z,143294.78
2023-02-26T07:33:28.243Z,143300.84
2023-02-26T07:35:55.246Z,143294.78
2023-02-26T07:38:22.297Z,143244.16
2023-02-26T07:40:49.410Z,143244.16
2023-02-26T07:43:16.490Z,143285.13
2023-02-26T07:45:43.449Z,143285.13
2023-02-26T07:48:10.474Z,143332.19
2023-02-26T07:50:37.450Z,143303.22
2023-02-26T07:53:04.512Z,143370.78
2023-02-26T07:55:31.616Z,143374.41
2023-02-26T07:57:58.642Z,143420.25
2023-02-26T08:00:25.673Z,143361.13
2023-02-26T08:02:52.822Z,143391.31
2023-02-26T08:05:19.843Z,143451.63
2023-02-26T08:07:46.848Z,143503.47
2023-02-26T08:10:14.345Z,143483.00
2023-02-26T08:12:41.388Z,143446.78
2023-02-26T08:15:09.215Z,143408.16
2023-02-26T08:17:36.290Z,143390.06
2023-02-26T08:20:04.982Z,143229.69
2023-02-26T08:22:32.068Z,143384.03
2023-02-26T08:24:59.126Z,143470.91
2023-02-26T08:27:26.442Z,143457.63
2023-02-26T08:29:53.419Z,143502.28
2023-02-26T08:32:22.951Z,143474.53
2023-02-26T08:34:49.999Z,143596.44
2023-02-26T08:37:17.036Z,143539.69
2023-02-26T08:39:44.018Z,143589.19
2023-02-26T08:42:12.291Z,143464.88
2023-02-26T08:44:39.355Z,143591.63
2023-02-26T08:47:06.400Z,143590.41
2023-02-26T08:49:33.392Z,143676.13
2023-02-26T08:52:00.364Z,143717.19
2023-02-26T08:54:27.330Z,143765.47
2023-02-26T08:56:55.845Z,143748.59
2023-02-26T08:59:23.680Z,143860.91
2023-02-26T09:01:51.028Z,143874.19
2023-02-26T09:04:18.153Z,143734.06
2023-02-26T09:06:45.375Z,143747.34
2023-02-26T09:09:12.585Z,143648.31
2023-02-26T09:11:39.794Z,143705.09
2023-02-26T09:14:07.000Z,143731.69
2023-02-26T09:16:36.639Z,143827.09
2023-02-26T09:19:04.962Z,143961.25
2023-02-26T09:21:32.435Z,144021.66
2023-02-26T09:23:59.566Z,143968.47
2023-02-26T09:26:27.044Z,144061.56
2023-02-26T09:28:54.284Z,144025.31
2023-02-26T09:31:21.418Z,144055.50
2023-02-26T09:33:48.421Z,144041.00
2023-02-26T09:36:15.501Z,143934.66
2023-02-26T09:38:44.174Z,143999.91
2023-02-26T09:41:36.292Z,144018.03
2023-02-26T09:44:28.376Z,143993.88
2023-02-26T09:47:12.022Z,144001.09
2023-02-26T09:49:47.986Z,143914.09
2023-02-26T09:52:29.938Z,143828.28
2023-02-26T09:55:01.206Z,143858.50
2023-02-26T09:57:32.708Z,143854.88
2023-02-26T10:00:00.616Z,143722.03
2023-02-26T10:02:38.026Z,143870.59
2023-02-26T10:05:22.961Z,143869.38
2023-02-26T10:08:06.153Z,143758.25
2023-02-26T10:10:56.923Z,143755.81
2023-02-26T10:13:29.856Z,143771.53
2023-02-26T10:16:04.691Z,143752.19
2023-02-26T10:18:36.272Z,143697.84
2023-02-26T10:21:15.053Z,143796.88
2023-02-26T10:23:48.738Z,143789.66
2023-02-26T10:26:25.423Z,143833.13
2023-02-26T10:29:34.485Z,143839.19
2023-02-26T10:32:26.427Z,143851.25
2023-02-26T10:35:00.197Z,143848.84
2023-02-26T10:37:55.644Z,143887.50
2023-02-26T10:40:28.834Z,143850.03
2023-02-26T10:43:04.617Z,143760.63
2023-02-26T10:45:59.933Z,143777.56
2023-02-26T10:48:54.252Z,143831.94
2023-02-26T10:51:25.971Z,143660.41
2023-02-26T10:53:59.599Z,143825.91
2023-02-26T10:56:30.696Z,143639.91
2023-02-26T10:58:57.975Z,143784.84
2023-02-26T11:01:27.774Z,143776.38
2023-02-26T11:04:21.228Z,143823.47
2023-02-26T11:06:55.283Z,143912.88
2023-02-26T11:09:28.894Z,143794.50
2023-02-26T11:12:05.801Z,143760.63
2023-02-26T11:14:34.327Z,143873.00
2023-02-26T11:17:17.450Z,143941.88
2023-02-26T11:19:56.837Z,144034.97
2023-02-26T11:22:27.523Z,144085.75
2023-02-26T11:24:56.272Z,144004.72
2023-02-26T11:27:36.151Z,143823.47
2023-02-26T11:30:25.541Z,143944.31
2023-02-26T11:32:56.472Z,143883.84
2023-02-26T11:35:26.451Z,143970.91
2023-02-26T11:37:59.853Z,143963.63
2023-02-26T11:40:41.726Z,143857.31
2023-02-26T11:43:15.261Z,143799.31
2023-02-26T11:45:45.404Z,143818.63
2023-02-26T11:48:22.771Z,143866.97
2023-02-26T11:50:55.193Z,143840.38
2023-02-26T11:53:31.511Z,143851.25
2023-02-26T11:56:02.104Z,143900.78
2023-02-26T11:58:35.711Z,143956.38
2023-02-26T12:01:04.554Z,144010.75
2023-02-26T12:03:36.025Z,144068.78
2023-02-26T12:06:04.329Z,144140.16
2023-02-26T12:08:38.324Z,144174.00
2023-02-26T12:11:17.272Z,144019.22
2023-02-26T12:14:21.459Z,143894.75
2023-02-26T12:17:07.389Z,143839.19
2023-02-26T12:19:46.313Z,144014.41
2023-02-26T12:22:27.045Z,144050.66
2023-02-26T12:25:21.903Z,144020.47
2023-02-26T12:28:01.406Z,144055.50
2023-02-26T12:30:51.300Z,144123.22
2023-02-26T12:33:36.332Z,144159.50
2023-02-26T12:36:22.804Z,144190.94
2023-02-26T12:39:04.587Z,144207.88
2023-02-26T12:41:54.993Z,144210.28
2023-02-26T12:44:46.920Z,144273.19
2023-02-26T12:47:25.664Z,144331.28
2023-02-26T12:50:09.327Z,144388.19
2023-02-26T12:52:52.076Z,144316.78
2023-02-26T12:55:37.878Z,144249.00
2023-02-26T12:58:42.162Z,144177.63
2023-02-26T13:01:28.201Z,144136.50
2023-02-26T13:04:03.848Z,144176.44
2023-02-26T13:06:45.538Z,144181.28
2023-02-26T13:09:43.566Z,144128.03
2023-02-26T13:12:23.648Z,144094.22
2023-02-26T13:14:53.360Z,144091.78
2023-02-26T13:17:46.749Z,144062.78
2023-02-26T13:20:19.351Z,144055.50
2023-02-26T13:22:51.908Z,144041.00
2023-02-26T13:25:34.868Z,144067.59
2023-02-26T13:28:19.648Z,144099.03
2023-02-26T13:30:52.554Z,144112.34
2023-02-26T13:33:28.052Z,144067.59
2023-02-26T13:35:57.064Z,144114.75
2023-02-26T13:38:47.347Z,144227.22
2023-02-26T13:41:22.258Z,144258.69
2023-02-26T13:44:06.128Z,144275.63
2023-02-26T13:46:58.608Z,144226.03
2023-02-26T13:49:37.942Z,144188.53
2023-02-26T13:52:04.947Z,144007.16
2023-02-26T13:54:50.573Z,143969.66
2023-02-26T13:57:25.725Z,143840.38
2023-02-26T14:00:20.640Z,143903.22
2023-02-26T14:03:12.244Z,143934.66
2023-02-26T14:05:46.326Z,143999.91
2023-02-26T14:08:39.158Z,143950.34
2023-02-26T14:11:39.478Z,143914.09
2023-02-26T14:14:18.960Z,143918.91
2023-02-26T14:16:52.893Z,143922.56
2023-02-26T14:19:29.280Z,143842.78
2023-02-26T14:22:18.584Z,143881.47
2023-02-26T14:25:08.421Z,143856.06
2023-02-26T14:27:40.756Z,144012.00
2023-02-26T14:30:10.901Z,144036.16
2023-02-26T14:32:54.526Z,144004.72
2023-02-26T14:35:30.503Z,143985.41
2023-02-26T14:38:01.116Z,143961.25
2023-02-26T14:40:33.033Z,143968.47
2023-02-26T14:43:04.698Z,143953.97
2023-02-26T14:45:36.288Z,143966.06
2023-02-26T14:48:11.852Z,143848.84
2023-02-26T14:50:57.313Z,143974.50
2023-02-26T14:53:48.378Z,144021.66
2023-02-26T14:56:30.863Z,143975.75
2023-02-26T14:59:33.618Z,143981.78
2023-02-26T15:02:31.961Z,143973.31
2023-02-26T15:05:29.309Z,143932.22
2023-02-26T15:08:15.280Z,143888.75
2023-02-26T15:11:06.524Z,143874.19
2023-02-26T15:13:48.194Z,143724.41
2023-02-26T15:16:37.225Z,143944.31
2023-02-26T15:19:18.558Z,143982.97
2023-02-26T15:22:00.581Z,143982.97
2023-02-26T15:24:30.783Z,144008.38
2023-02-26T15:27:02.382Z,144002.34
2023-02-26T15:29:33.087Z,144002.34
2023-02-26T15:32:13.713Z,144007.16
2023-02-26T15:34:48.727Z,144009.56
2023-02-26T15:37:23.630Z,143940.69
2023-02-26T15:39:51.444Z,143927.38
2023-02-26T15:42:21.328Z,143997.50
2023-02-26T15:44:56.833Z,143986.59
2023-02-26T15:47:24.340Z,143927.38
2023-02-26T15:49:51.624Z,143958.81
2023-02-26T15:52:22.561Z,143830.72
2023-02-26T15:54:52.830Z,143881.47
2023-02-26T15:57:24.117Z,143850.03
2023-02-26T15:59:54.216Z,143852.47
2023-02-26T16:02:30.970Z,143827.09
2023-02-26T16:04:58.285Z,143769.09
2023-02-26T16:07:25.706Z,143776.38
2023-02-26T16:09:54.401Z,143748.59
2023-02-26T16:12:25.683Z,143778.75
2023-02-26T16:14:57.155Z,143769.09
2023-02-26T16:17:42.488Z,143763.09
2023-02-26T16:20:39.102Z,143748.59
2023-02-26T16:23:33.040Z,143723.22
2023-02-26T16:26:02.818Z,143731.69
2023-02-26T16:28:33.660Z,143697.84
2023-02-26T16:31:04.536Z,143709.94
2023-02-26T16:33:34.228Z,143688.19
2023-02-26T16:36:12.374Z,143678.53
2023-02-26T16:38:47.550Z,143620.56
2023-02-26T16:41:14.685Z,143660.41
2023-02-26T16:43:44.750Z,143618.19
2023-02-26T16:46:15.568Z,143630.22
2023-02-26T16:48:49.305Z,143546.94
2023-02-26T16:51:22.546Z,143606.09
2023-02-26T16:54:03.089Z,143584.34
2023-02-26T16:56:33.140Z,143540.94
2023-02-26T16:59:20.577Z,143560.22
2023-02-26T17:02:00.566Z,143538.50
2023-02-26T17:04:34.287Z,143519.19
2023-02-26T17:07:05.151Z,143384.03
2023-02-26T17:09:42.827Z,143497.47
2023-02-26T17:12:24.040Z,143458.88
2023-02-26T17:15:00.469Z,143466.09
2023-02-26T17:17:27.981Z,143314.09
2023-02-26T17:19:55.110Z,143454.03
2023-02-26T17:22:27.877Z,143425.06
2023-02-26T17:24:55.135Z,143343.03
2023-02-26T17:27:32.393Z,143443.16
2023-02-26T17:30:02.049Z,143274.31
2023-02-26T17:32:31.170Z,143400.94
2023-02-26T17:34:59.015Z,143289.97
2023-02-26T17:37:39.527Z,143167.00
2023-02-26T17:40:28.620Z,143306.84
2023-02-26T17:42:56.962Z,143244.16
2023-02-26T17:45:24.052Z,143300.84
2023-02-26T17:47:51.606Z,143183.88
2023-02-26T17:50:54.772Z,143282.75
2023-02-26T17:53:23.786Z,143273.09
2023-02-26T17:55:53.191Z,143216.41
2023-02-26T17:58:31.992Z,143145.28
2023-02-26T18:01:00.203Z,143207.97
2023-02-26T18:03:27.566Z,143142.91
2023-02-26T18:05:56.066Z,143204.34
2023-02-26T18:08:26.756Z,143212.78
2023-02-26T18:10:54.196Z,143200.78
2023-02-26T18:13:22.095Z,143203.16
2023-02-26T18:15:50.525Z,143199.53
2023-02-26T18:18:19.732Z,143181.44
2023-02-26T18:20:47.349Z,143176.63
2023-02-26T18:23:16.585Z,143167.00
2023-02-26T18:25:46.193Z,143165.78
2023-02-26T18:28:22.106Z,143165.78
2023-02-26T18:30:50.662Z,143036.81
2023-02-26T18:33:18.642Z,143162.16
2023-02-26T18:35:47.881Z,143087.47
2023-02-26T18:38:16.698Z,143188.69
2023-02-26T18:40:45.448Z,143177.88
2023-02-26T18:43:12.821Z,143153.72
2023-02-26T18:45:40.995Z,143134.47
2023-02-26T18:48:11.313Z,143145.28
2023-02-26T18:50:38.376Z,143115.19
2023-02-26T18:53:05.478Z,143123.63
2023-02-26T18:55:32.789Z,143138.09
2023-02-26T18:58:01.739Z,143109.13
2023-02-26T19:00:29.333Z,143140.47
2023-02-26T19:02:56.545Z,143113.94
2023-02-26T19:05:24.629Z,143133.25
2023-02-26T19:07:51.964Z,143106.75
2023-02-26T19:10:19.246Z,143099.50
2023-02-26T19:12:46.389Z,143153.72
2023-02-26T19:15:14.135Z,143103.13
2023-02-26T19:17:42.138Z,143140.47
2023-02-26T19:20:10.212Z,143176.63
2023-02-26T19:22:37.391Z,143150.09
2023-02-26T19:25:05.591Z,143053.72
2023-02-26T19:27:32.669Z,143135.66
2023-02-26T19:29:59.687Z,143141.72
2023-02-26T19:32:27.076Z,143106.75
2023-02-26T19:34:54.175Z,143116.38
2023-02-26T19:37:21.299Z,143064.53
2023-02-26T19:39:48.701Z,143101.94
2023-02-26T19:42:16.027Z,143109.13
2023-02-26T19:44:43.035Z,143097.09
2023-02-26T19:47:10.316Z,143082.59
2023-02-26T19:49:37.331Z,143068.16
2023-02-26T19:52:04.691Z,143071.78
2023-02-26T19:54:31.858Z,143071.78
2023-02-26T19:56:59.304Z,143003.13
2023-02-26T19:59:26.814Z,143060.97
2023-02-26T20:01:54.066Z,143058.53
2023-02-26T20:04:21.313Z,143053.72
2023-02-26T20:06:48.279Z,142940.47
2023-02-26T20:09:17.077Z,143034.44
2023-02-26T20:11:44.093Z,143042.88
2023-02-26T20:14:11.377Z,143074.22
2023-02-26T20:16:38.776Z,143032.00
2023-02-26T20:19:06.361Z,143106.75
2023-02-26T20:21:33.949Z,143111.56
2023-02-26T20:24:01.042Z,143127.22
2023-02-26T20:26:28.178Z,143094.66
2023-02-26T20:28:55.176Z,143162.16
2023-02-26T20:31:22.321Z,143154.91
2023-02-26T20:33:49.803Z,143130.84
2023-02-26T20:36:17.105Z,143033.25
2023-02-26T20:38:44.419Z,143109.13
2023-02-26T20:41:11.463Z,143066.97
2023-02-26T20:43:38.681Z,143091.06
2023-02-26T20:46:05.829Z,143094.66
2023-02-26T20:48:34.641Z,143139.28
2023-02-26T20:51:05.190Z,143142.91
2023-02-26T20:53:32.466Z,143032.00
2023-02-26T20:56:00.015Z,143162.16
2023-02-26T20:58:27.514Z,143198.34
2023-02-26T21:00:56.844Z,143175.44
2023-02-26T21:03:24.473Z,143203.16
2023-02-26T21:05:51.599Z,143187.50
2023-02-26T21:08:18.759Z,143154.91
2023-02-26T21:10:45.865Z,143109.13
2023-02-26T21:13:13.199Z,143079.03
2023-02-26T21:15:40.257Z,143015.19
2023-02-26T21:18:07.430Z,143013.94
2023-02-26T21:20:34.675Z,142933.22
2023-02-26T21:23:01.662Z,142942.91
2023-02-26T21:25:31.271Z,142828.47
2023-02-26T21:27:58.642Z,142815.22
2023-02-26T21:30:25.784Z,142935.66
2023-02-26T21:32:52.802Z,142963.34
2023-02-26T21:35:20.079Z,142988.66
2023-02-26T21:37:47.160Z,143004.31
2023-02-26T21:40:22.931Z,142913.97
2023-02-26T21:42:55.415Z,142972.97
2023-02-26T21:45:22.463Z,142945.28
2023-02-26T21:47:49.450Z,142924.84
2023-02-26T21:50:16.706Z,142903.13
2023-02-26T21:52:43.874Z,142875.44
2023-02-26T21:55:11.448Z,142709.31
2023-02-26T21:57:38.712Z,142858.59
2023-02-26T22:00:10.161Z,142851.34
2023-02-26T22:02:40.496Z,142833.28
2023-02-26T22:05:07.870Z,142800.78
2023-02-26T22:07:35.706Z,142792.34
2023-02-26T22:10:03.380Z,142791.16
2023-02-26T22:12:30.370Z,142779.09
2023-02-26T22:14:57.435Z,142771.91
2023-02-26T22:17:25.098Z,142602.22
2023-02-26T22:19:52.241Z,142767.09
2023-02-26T22:22:19.219Z,142750.22
2023-02-26T22:24:46.227Z,142737.00
2023-02-26T22:27:13.299Z,142727.38
2023-02-26T22:29:40.372Z,142721.31
2023-02-26T22:32:07.463Z,142714.13
2023-02-26T22:34:36.619Z,142709.31
2023-02-26T22:37:04.074Z,142567.31
2023-02-26T22:39:31.134Z,142682.84
2023-02-26T22:41:58.091Z,142678.03
2023-02-26T22:44:25.261Z,142659.97
2023-02-26T22:46:52.265Z,142647.91
2023-02-26T22:49:19.829Z,142602.22
2023-02-26T22:51:47.654Z,142640.72
2023-02-26T22:54:14.643Z,142639.50
2023-02-26T22:56:41.627Z,142490.34
2023-02-26T22:59:08.648Z,142588.97
2023-02-26T23:01:35.795Z,142628.69
2023-02-26T23:04:02.869Z,142629.88
2023-02-26T23:06:29.879Z,142608.22
2023-02-26T23:08:56.985Z,142615.44
2023-02-26T23:11:24.036Z,142493.94
2023-02-26T23:13:51.142Z,142586.59
2023-02-26T23:16:18.222Z,142586.59
2023-02-26T23:18:47.905Z,142456.69
2023-02-26T23:21:15.404Z,142578.16
2023-02-26T23:23:43.803Z,142562.50
2023-02-26T23:26:11.465Z,142507.19
2023-02-26T23:28:38.573Z,142382.13
2023-02-26T23:31:05.955Z,142530.03
2023-02-26T23:33:32.991Z,142545.69
2023-02-26T23:36:00.036Z,142522.81
2023-02-26T23:38:27.152Z,142531.22
2023-02-26T23:40:54.276Z,142516.81
2023-02-26T23:43:21.287Z,142521.59
2023-02-26T23:45:48.558Z,142507.19
2023-02-26T23:48:15.527Z,142495.16
2023-02-26T23:50:42.594Z,142431.41
2023-02-26T23:53:09.592Z,142495.16
2023-02-26T23:55:36.586Z,142437.47
2023-02-26T23:58:03.602Z,142401.41
